sensor_id;sensor_type;location;lat;lon;timestamp;P1;durP1;ratioP1;P2;durP2;ratioP2
8413;SDS011;4244;48.684;9.028;2024-02-26T00:01:49;3.60;;;3.00;;
8413;SDS011;4244;48.684;9.028;2024-02-26T00:04:15;3.60;;;2.67;;
8413;SDS011;4244;48.684;9.028;2024-02-26T00:06:41;3.00;;;2.70;;
8413;SDS011;4244;48.684;9.028;2024-02-26T00:09:07;2.33;;;2.13;;
8413;SDS011;4244;48.684;9.028;2024-02-26T00:11:35;4.27;;;2.20;;
8413;SDS011;4244;48.684;9.028;2024-02-26T00:14:02;3.40;;;2.07;;
8413;SDS011;4244;48.684;9.028;2024-02-26T00:16:28;5.83;;;3.50;;
8413;SDS011;4244;48.684;9.028;2024-02-26T00:18:54;4.20;;;3.20;;
8413;SDS011;4244;48.684;9.028;2024-02-26T00:21:20;3.60;;;3.27;;
8413;SDS011;4244;48.684;9.028;2024-02-26T00:23:46;2.90;;;2.40;;
8413;SDS011;4244;48.684;9.028;2024-02-26T00:26:12;2.60;;;2.07;;
8413;SDS011;4244;48.684;9.028;2024-02-26T00:28:40;2.70;;;2.00;;
8413;SDS011;4244;48.684;9.028;2024-02-26T00:31:06;2.20;;;1.90;;
8413;SDS011;4244;48.684;9.028;2024-02-26T00:33:32;3.23;;;1.07;;
8413;SDS011;4244;48.684;9.028;2024-02-26T00:35:58;2.07;;;1.03;;
8413;SDS011;4244;48.684;9.028;2024-02-26T00:38:24;1.67;;;1.07;;
8413;SDS011;4244;48.684;9.028;2024-02-26T00:40:50;3.50;;;1.57;;
8413;SDS011;4244;48.684;9.028;2024-02-26T00:43:16;2.10;;;1.33;;
8413;SDS011;4244;48.684;9.028;2024-02-26T00:45:42;1.77;;;1.10;;
8413;SDS011;4244;48.684;9.028;2024-02-26T00:48:08;4.30;;;1.60;;
8413;SDS011;4244;48.684;9.028;2024-02-26T00:50:34;2.30;;;1.40;;
8413;SDS011;4244;48.684;9.028;2024-02-26T00:53:00;1.70;;;1.37;;
8413;SDS011;4244;48.684;9.028;2024-02-26T00:55:26;2.17;;;1.50;;
8413;SDS011;4244;48.684;9.028;2024-02-26T00:57:52;1.77;;;1.17;;
8413;SDS011;4244;48.684;9.028;2024-02-26T01:00:18;1.87;;;1.40;;
8413;SDS011;4244;48.684;9.028;2024-02-26T01:02:44;2.17;;;1.80;;
8413;SDS011;4244;48.684;9.028;2024-02-26T01:05:11;3.03;;;1.30;;
8413;SDS011;4244;48.684;9.028;2024-02-26T01:07:37;7.00;;;1.57;;
8413;SDS011;4244;48.684;9.028;2024-02-26T01:10:04;2.00;;;1.20;;
8413;SDS011;4244;48.684;9.028;2024-02-26T01:12:31;2.40;;;1.47;;
8413;SDS011;4244;48.684;9.028;2024-02-26T01:14:57;1.87;;;1.60;;
8413;SDS011;4244;48.684;9.028;2024-02-26T01:17:23;2.10;;;1.53;;
8413;SDS011;4244;48.684;9.028;2024-02-26T01:19:49;3.00;;;1.60;;
8413;SDS011;4244;48.684;9.028;2024-02-26T01:22:15;1.90;;;1.60;;
8413;SDS011;4244;48.684;9.028;2024-02-26T01:24:41;2.87;;;1.60;;
8413;SDS011;4244;48.684;9.028;2024-02-26T01:27:07;2.67;;;2.10;;
8413;SDS011;4244;48.684;9.028;2024-02-26T01:29:34;3.53;;;1.73;;
8413;SDS011;4244;48.684;9.028;2024-02-26T01:32:00;2.50;;;1.87;;
8413;SDS011;4244;48.684;9.028;2024-02-26T01:34:26;4.30;;;2.20;;
8413;SDS011;4244;48.684;9.028;2024-02-26T01:36:52;3.23;;;2.47;;
8413;SDS011;4244;48.684;9.028;2024-02-26T01:39:18;3.07;;;1.80;;
8413;SDS011;4244;48.684;9.028;2024-02-26T01:41:44;3.80;;;2.10;;
8413;SDS011;4244;48.684;9.028;2024-02-26T01:44:11;4.03;;;2.00;;
8413;SDS011;4244;48.684;9.028;2024-02-26T01:46:41;1.70;;;1.40;;
8413;SDS011;4244;48.684;9.028;2024-02-26T01:49:08;2.30;;;1.70;;
8413;SDS011;4244;48.684;9.028;2024-02-26T01:51:34;2.17;;;1.80;;
8413;SDS011;4244;48.684;9.028;2024-02-26T01:54:01;2.50;;;1.70;;
8413;SDS011;4244;48.684;9.028;2024-02-26T01:56:28;2.97;;;1.80;;
8413;SDS011;4244;48.684;9.028;2024-02-26T01:58:57;2.43;;;1.80;;
8413;SDS011;4244;48.684;9.028;2024-02-26T02:01:25;2.80;;;1.40;;
8413;SDS011;4244;48.684;9.028;2024-02-26T02:03:51;2.50;;;1.20;;
8413;SDS011;4244;48.684;9.028;2024-02-26T02:06:17;1.60;;;1.07;;
8413;SDS011;4244;48.684;9.028;2024-02-26T02:08:44;1.90;;;1.40;;
8413;SDS011;4244;48.684;9.028;2024-02-26T02:11:10;1.50;;;1.13;;
8413;SDS011;4244;48.684;9.028;2024-02-26T02:13:39;1.17;;;1.00;;
8413;SDS011;4244;48.684;9.028;2024-02-26T02:16:06;1.57;;;1.20;;
8413;SDS011;4244;48.684;9.028;2024-02-26T02:18:33;0.87;;;0.60;;
8413;SDS011;4244;48.684;9.028;2024-02-26T02:21:02;1.00;;;0.80;;
8413;SDS011;4244;48.684;9.028;2024-02-26T02:23:28;1.13;;;0.90;;
8413;SDS011;4244;48.684;9.028;2024-02-26T02:25:55;1.10;;;0.70;;
8413;SDS011;4244;48.684;9.028;2024-02-26T02:28:22;1.93;;;1.07;;
8413;SDS011;4244;48.684;9.028;2024-02-26T02:30:48;2.43;;;0.80;;
8413;SDS011;4244;48.684;9.028;2024-02-26T02:33:15;1.30;;;0.80;;
8413;SDS011;4244;48.684;9.028;2024-02-26T02:35:42;1.70;;;1.27;;
8413;SDS011;4244;48.684;9.028;2024-02-26T02:38:08;1.43;;;1.00;;
8413;SDS011;4244;48.684;9.028;2024-02-26T02:40:34;1.40;;;1.10;;
8413;SDS011;4244;48.684;9.028;2024-02-26T02:43:00;1.30;;;0.80;;
8413;SDS011;4244;48.684;9.028;2024-02-26T02:45:27;1.20;;;0.90;;
8413;SDS011;4244;48.684;9.028;2024-02-26T02:47:53;1.50;;;1.07;;
8413;SDS011;4244;48.684;9.028;2024-02-26T02:50:19;1.43;;;0.90;;
8413;SDS011;4244;48.684;9.028;2024-02-26T02:52:45;1.17;;;0.93;;
8413;SDS011;4244;48.684;9.028;2024-02-26T02:55:12;1.30;;;0.90;;
8413;SDS011;4244;48.684;9.028;2024-02-26T02:57:38;1.40;;;1.00;;
8413;SDS011;4244;48.684;9.028;2024-02-26T03:00:09;1.60;;;1.00;;
8413;SDS011;4244;48.684;9.028;2024-02-26T03:02:35;2.07;;;1.10;;
8413;SDS011;4244;48.684;9.028;2024-02-26T03:05:01;1.10;;;0.80;;
8413;SDS011;4244;48.684;9.028;2024-02-26T03:07:27;1.33;;;1.00;;
8413;SDS011;4244;48.684;9.028;2024-02-26T03:09:54;1.00;;;0.70;;
8413;SDS011;4244;48.684;9.028;2024-02-26T03:12:20;1.43;;;0.90;;
8413;SDS011;4244;48.684;9.028;2024-02-26T03:14:46;0.83;;;0.50;;
8413;SDS011;4244;48.684;9.028;2024-02-26T03:17:12;1.10;;;0.70;;
8413;SDS011;4244;48.684;9.028;2024-02-26T03:19:38;1.27;;;0.70;;
8413;SDS011;4244;48.684;9.028;2024-02-26T03:22:04;1.33;;;0.60;;
8413;SDS011;4244;48.684;9.028;2024-02-26T03:24:30;1.30;;;0.97;;
8413;SDS011;4244;48.684;9.028;2024-02-26T03:26:56;1.10;;;0.80;;
8413;SDS011;4244;48.684;9.028;2024-02-26T03:29:24;1.20;;;0.73;;
8413;SDS011;4244;48.684;9.028;2024-02-26T03:31:50;1.47;;;1.17;;
8413;SDS011;4244;48.684;9.028;2024-02-26T03:34:16;1.33;;;0.97;;
8413;SDS011;4244;48.684;9.028;2024-02-26T03:36:43;1.63;;;1.00;;
8413;SDS011;4244;48.684;9.028;2024-02-26T03:39:10;1.43;;;1.00;;
8413;SDS011;4244;48.684;9.028;2024-02-26T03:41:36;1.90;;;1.20;;
8413;SDS011;4244;48.684;9.028;2024-02-26T03:44:02;1.83;;;0.90;;
8413;SDS011;4244;48.684;9.028;2024-02-26T03:46:28;1.23;;;0.70;;
8413;SDS011;4244;48.684;9.028;2024-02-26T03:48:54;1.50;;;1.00;;
8413;SDS011;4244;48.684;9.028;2024-02-26T03:51:20;1.70;;;1.00;;
8413;SDS011;4244;48.684;9.028;2024-02-26T03:53:46;1.77;;;1.20;;
8413;SDS011;4244;48.684;9.028;2024-02-26T03:56:12;1.00;;;0.70;;
8413;SDS011;4244;48.684;9.028;2024-02-26T03:58:38;2.17;;;0.90;;
8413;SDS011;4244;48.684;9.028;2024-02-26T04:01:07;1.37;;;0.97;;
8413;SDS011;4244;48.684;9.028;2024-02-26T04:03:33;1.47;;;0.93;;
8413;SDS011;4244;48.684;9.028;2024-02-26T04:05:59;1.20;;;0.70;;
8413;SDS011;4244;48.684;9.028;2024-02-26T04:08:25;1.33;;;0.93;;
8413;SDS011;4244;48.684;9.028;2024-02-26T04:10:51;1.10;;;0.77;;
8413;SDS011;4244;48.684;9.028;2024-02-26T04:13:17;1.07;;;0.60;;
8413;SDS011;4244;48.684;9.028;2024-02-26T04:15:43;1.20;;;1.00;;
8413;SDS011;4244;48.684;9.028;2024-02-26T04:18:09;1.00;;;0.80;;
8413;SDS011;4244;48.684;9.028;2024-02-26T04:20:35;1.40;;;0.83;;
8413;SDS011;4244;48.684;9.028;2024-02-26T04:23:02;2.07;;;0.90;;
8413;SDS011;4244;48.684;9.028;2024-02-26T04:25:28;2.70;;;1.47;;
8413;SDS011;4244;48.684;9.028;2024-02-26T04:27:54;2.17;;;1.30;;
8413;SDS011;4244;48.684;9.028;2024-02-26T04:30:20;2.33;;;1.20;;
8413;SDS011;4244;48.684;9.028;2024-02-26T04:32:46;1.90;;;1.10;;
8413;SDS011;4244;48.684;9.028;2024-02-26T04:35:12;2.20;;;1.20;;
8413;SDS011;4244;48.684;9.028;2024-02-26T04:37:38;1.43;;;0.90;;
8413;SDS011;4244;48.684;9.028;2024-02-26T04:40:04;1.03;;;0.93;;
8413;SDS011;4244;48.684;9.028;2024-02-26T04:42:31;1.07;;;0.77;;
8413;SDS011;4244;48.684;9.028;2024-02-26T04:44:57;1.20;;;0.87;;
8413;SDS011;4244;48.684;9.028;2024-02-26T04:47:23;1.43;;;0.90;;
8413;SDS011;4244;48.684;9.028;2024-02-26T04:49:49;1.40;;;0.90;;
8413;SDS011;4244;48.684;9.028;2024-02-26T04:52:15;1.43;;;1.10;;
8413;SDS011;4244;48.684;9.028;2024-02-26T04:54:41;1.50;;;1.00;;
8413;SDS011;4244;48.684;9.028;2024-02-26T04:57:07;1.67;;;1.20;;
8413;SDS011;4244;48.684;9.028;2024-02-26T04:59:33;1.63;;;1.10;;
8413;SDS011;4244;48.684;9.028;2024-02-26T05:01:59;1.80;;;1.30;;
8413;SDS011;4244;48.684;9.028;2024-02-26T05:04:25;1.30;;;1.20;;
8413;SDS011;4244;48.684;9.028;2024-02-26T05:06:51;2.07;;;1.40;;
8413;SDS011;4244;48.684;9.028;2024-02-26T05:09:18;1.90;;;1.63;;
8413;SDS011;4244;48.684;9.028;2024-02-26T05:11:45;2.13;;;1.77;;
8413;SDS011;4244;48.684;9.028;2024-02-26T05:14:11;3.60;;;1.63;;
8413;SDS011;4244;48.684;9.028;2024-02-26T05:16:37;1.67;;;1.47;;
8413;SDS011;4244;48.684;9.028;2024-02-26T05:19:03;2.27;;;1.30;;
8413;SDS011;4244;48.684;9.028;2024-02-26T05:21:30;1.50;;;1.20;;
8413;SDS011;4244;48.684;9.028;2024-02-26T05:23:56;1.97;;;1.60;;
8413;SDS011;4244;48.684;9.028;2024-02-26T05:26:23;3.10;;;1.63;;
8413;SDS011;4244;48.684;9.028;2024-02-26T05:28:49;2.53;;;1.67;;
8413;SDS011;4244;48.684;9.028;2024-02-26T05:31:15;2.20;;;1.43;;
8413;SDS011;4244;48.684;9.028;2024-02-26T05:33:42;2.73;;;1.30;;
8413;SDS011;4244;48.684;9.028;2024-02-26T05:36:08;1.60;;;1.37;;
8413;SDS011;4244;48.684;9.028;2024-02-26T05:38:34;3.17;;;1.90;;
8413;SDS011;4244;48.684;9.028;2024-02-26T05:41:00;2.03;;;1.57;;
8413;SDS011;4244;48.684;9.028;2024-02-26T05:43:26;1.90;;;1.50;;
8413;SDS011;4244;48.684;9.028;2024-02-26T05:45:53;2.00;;;1.40;;
8413;SDS011;4244;48.684;9.028;2024-02-26T05:48:19;2.50;;;1.37;;
8413;SDS011;4244;48.684;9.028;2024-02-26T05:50:46;2.50;;;1.70;;
8413;SDS011;4244;48.684;9.028;2024-02-26T05:53:12;2.30;;;1.80;;
8413;SDS011;4244;48.684;9.028;2024-02-26T05:55:42;2.70;;;2.10;;
8413;SDS011;4244;48.684;9.028;2024-02-26T05:58:08;3.40;;;3.10;;
8413;SDS011;4244;48.684;9.028;2024-02-26T06:00:34;4.80;;;4.40;;
8413;SDS011;4244;48.684;9.028;2024-02-26T06:03:00;5.10;;;4.60;;
8413;SDS011;4244;48.684;9.028;2024-02-26T06:05:27;3.90;;;3.50;;
8413;SDS011;4244;48.684;9.028;2024-02-26T06:07:53;2.83;;;2.63;;
8413;SDS011;4244;48.684;9.028;2024-02-26T06:10:20;2.83;;;2.60;;
8413;SDS011;4244;48.684;9.028;2024-02-26T06:12:47;2.77;;;2.10;;
8413;SDS011;4244;48.684;9.028;2024-02-26T06:15:13;2.83;;;1.70;;
8413;SDS011;4244;48.684;9.028;2024-02-26T06:17:39;2.00;;;1.63;;
8413;SDS011;4244;48.684;9.028;2024-02-26T06:20:06;2.50;;;2.03;;
8413;SDS011;4244;48.684;9.028;2024-02-26T06:22:36;4.63;;;1.80;;
8413;SDS011;4244;48.684;9.028;2024-02-26T06:25:02;2.20;;;2.00;;
8413;SDS011;4244;48.684;9.028;2024-02-26T06:27:28;2.70;;;2.10;;
8413;SDS011;4244;48.684;9.028;2024-02-26T06:29:54;2.83;;;2.20;;
8413;SDS011;4244;48.684;9.028;2024-02-26T06:32:20;3.40;;;2.30;;
8413;SDS011;4244;48.684;9.028;2024-02-26T06:34:48;2.50;;;2.20;;
8413;SDS011;4244;48.684;9.028;2024-02-26T06:37:14;2.33;;;2.13;;
8413;SDS011;4244;48.684;9.028;2024-02-26T06:39:40;2.77;;;2.17;;
8413;SDS011;4244;48.684;9.028;2024-02-26T06:42:06;2.80;;;2.30;;
8413;SDS011;4244;48.684;9.028;2024-02-26T06:44:33;2.80;;;2.50;;
8413;SDS011;4244;48.684;9.028;2024-02-26T06:46:59;3.67;;;2.87;;
8413;SDS011;4244;48.684;9.028;2024-02-26T06:49:25;3.13;;;2.47;;
8413;SDS011;4244;48.684;9.028;2024-02-26T06:51:51;4.23;;;2.50;;
8413;SDS011;4244;48.684;9.028;2024-02-26T06:54:17;3.17;;;2.67;;
8413;SDS011;4244;48.684;9.028;2024-02-26T06:56:43;4.10;;;2.87;;
8413;SDS011;4244;48.684;9.028;2024-02-26T06:59:09;4.70;;;3.30;;
8413;SDS011;4244;48.684;9.028;2024-02-26T07:01:35;1.60;;;1.20;;
8413;SDS011;4244;48.684;9.028;2024-02-26T07:04:01;10.40;;;1.73;;
8413;SDS011;4244;48.684;9.028;2024-02-26T07:06:27;14.20;;;5.10;;
8413;SDS011;4244;48.684;9.028;2024-02-26T07:08:53;13.53;;;5.00;;
8413;SDS011;4244;48.684;9.028;2024-02-26T07:11:19;7.43;;;3.80;;
8413;SDS011;4244;48.684;9.028;2024-02-26T07:13:46;7.47;;;3.50;;
8413;SDS011;4244;48.684;9.028;2024-02-26T07:16:12;5.73;;;2.80;;
8413;SDS011;4244;48.684;9.028;2024-02-26T07:18:41;4.10;;;2.40;;
8413;SDS011;4244;48.684;9.028;2024-02-26T07:21:12;4.30;;;2.17;;
8413;SDS011;4244;48.684;9.028;2024-02-26T07:23:40;2.37;;;2.00;;
8413;SDS011;4244;48.684;9.028;2024-02-26T07:26:06;2.63;;;1.73;;
8413;SDS011;4244;48.684;9.028;2024-02-26T07:28:33;2.13;;;1.50;;
8413;SDS011;4244;48.684;9.028;2024-02-26T07:30:59;2.00;;;1.60;;
8413;SDS011;4244;48.684;9.028;2024-02-26T07:33:25;3.80;;;1.77;;
8413;SDS011;4244;48.684;9.028;2024-02-26T07:35:51;2.40;;;1.67;;
8413;SDS011;4244;48.684;9.028;2024-02-26T07:38:18;2.33;;;2.13;;
8413;SDS011;4244;48.684;9.028;2024-02-26T07:40:44;2.30;;;1.97;;
8413;SDS011;4244;48.684;9.028;2024-02-26T07:43:10;3.03;;;2.20;;
8413;SDS011;4244;48.684;9.028;2024-02-26T07:45:36;2.70;;;2.20;;
8413;SDS011;4244;48.684;9.028;2024-02-26T07:48:02;2.03;;;1.83;;
8413;SDS011;4244;48.684;9.028;2024-02-26T07:50:28;1.90;;;1.63;;
8413;SDS011;4244;48.684;9.028;2024-02-26T07:52:54;2.53;;;2.33;;
8413;SDS011;4244;48.684;9.028;2024-02-26T07:55:20;2.40;;;2.00;;
8413;SDS011;4244;48.684;9.028;2024-02-26T07:57:47;3.00;;;2.17;;
8413;SDS011;4244;48.684;9.028;2024-02-26T08:00:14;3.37;;;2.37;;
8413;SDS011;4244;48.684;9.028;2024-02-26T08:02:41;2.87;;;2.20;;
8413;SDS011;4244;48.684;9.028;2024-02-26T08:05:08;2.00;;;1.80;;
8413;SDS011;4244;48.684;9.028;2024-02-26T08:07:34;2.20;;;1.90;;
8413;SDS011;4244;48.684;9.028;2024-02-26T08:10:00;2.37;;;1.90;;
8413;SDS011;4244;48.684;9.028;2024-02-26T08:12:26;2.10;;;1.80;;
8413;SDS011;4244;48.684;9.028;2024-02-26T08:14:52;1.90;;;1.70;;
8413;SDS011;4244;48.684;9.028;2024-02-26T08:17:18;2.30;;;1.17;;
8413;SDS011;4244;48.684;9.028;2024-02-26T08:19:44;2.43;;;1.90;;
8413;SDS011;4244;48.684;9.028;2024-02-26T08:22:10;2.60;;;1.60;;
8413;SDS011;4244;48.684;9.028;2024-02-26T08:24:41;1.70;;;1.40;;
8413;SDS011;4244;48.684;9.028;2024-02-26T08:27:07;2.40;;;1.60;;
8413;SDS011;4244;48.684;9.028;2024-02-26T08:29:33;1.53;;;1.03;;
8413;SDS011;4244;48.684;9.028;2024-02-26T08:31:59;2.17;;;1.47;;
8413;SDS011;4244;48.684;9.028;2024-02-26T08:34:25;2.00;;;1.37;;
8413;SDS011;4244;48.684;9.028;2024-02-26T08:36:51;1.80;;;1.50;;
8413;SDS011;4244;48.684;9.028;2024-02-26T08:39:17;1.70;;;1.33;;
8413;SDS011;4244;48.684;9.028;2024-02-26T08:41:44;1.97;;;1.30;;
8413;SDS011;4244;48.684;9.028;2024-02-26T08:44:10;1.90;;;1.30;;
8413;SDS011;4244;48.684;9.028;2024-02-26T08:46:36;2.10;;;1.30;;
8413;SDS011;4244;48.684;9.028;2024-02-26T08:49:02;1.93;;;1.40;;
8413;SDS011;4244;48.684;9.028;2024-02-26T08:51:28;1.50;;;1.30;;
8413;SDS011;4244;48.684;9.028;2024-02-26T08:53:54;1.50;;;1.40;;
8413;SDS011;4244;48.684;9.028;2024-02-26T08:56:21;2.07;;;1.37;;
8413;SDS011;4244;48.684;9.028;2024-02-26T08:58:47;1.47;;;1.10;;
8413;SDS011;4244;48.684;9.028;2024-02-26T09:01:17;1.33;;;1.20;;
8413;SDS011;4244;48.684;9.028;2024-02-26T09:03:43;2.87;;;1.53;;
8413;SDS011;4244;48.684;9.028;2024-02-26T09:06:09;2.07;;;1.87;;
8413;SDS011;4244;48.684;9.028;2024-02-26T09:08:36;4.10;;;2.10;;
8413;SDS011;4244;48.684;9.028;2024-02-26T09:11:02;2.10;;;1.90;;
8413;SDS011;4244;48.684;9.028;2024-02-26T09:13:29;2.10;;;1.90;;
8413;SDS011;4244;48.684;9.028;2024-02-26T09:15:55;3.17;;;2.67;;
8413;SDS011;4244;48.684;9.028;2024-02-26T09:18:21;2.87;;;1.60;;
8413;SDS011;4244;48.684;9.028;2024-02-26T09:20:47;2.20;;;1.53;;
8413;SDS011;4244;48.684;9.028;2024-02-26T09:23:13;2.07;;;1.50;;
8413;SDS011;4244;48.684;9.028;2024-02-26T09:25:39;3.30;;;1.77;;
8413;SDS011;4244;48.684;9.028;2024-02-26T09:28:05;1.50;;;1.40;;
8413;SDS011;4244;48.684;9.028;2024-02-26T09:30:31;2.23;;;1.80;;
8413;SDS011;4244;48.684;9.028;2024-02-26T09:32:57;1.87;;;1.57;;
8413;SDS011;4244;48.684;9.028;2024-02-26T09:35:23;2.83;;;2.17;;
8413;SDS011;4244;48.684;9.028;2024-02-26T09:37:49;5.47;;;4.90;;
8413;SDS011;4244;48.684;9.028;2024-02-26T09:40:15;16.33;;;10.27;;
8413;SDS011;4244;48.684;9.028;2024-02-26T09:42:43;7.30;;;5.40;;
8413;SDS011;4244;48.684;9.028;2024-02-26T09:45:10;3.57;;;2.57;;
8413;SDS011;4244;48.684;9.028;2024-02-26T09:47:37;3.87;;;1.87;;
8413;SDS011;4244;48.684;9.028;2024-02-26T09:50:05;1.63;;;1.20;;
8413;SDS011;4244;48.684;9.028;2024-02-26T09:52:34;2.57;;;1.40;;
8413;SDS011;4244;48.684;9.028;2024-02-26T09:55:00;1.60;;;1.30;;
8413;SDS011;4244;48.684;9.028;2024-02-26T09:57:28;1.73;;;1.03;;
8413;SDS011;4244;48.684;9.028;2024-02-26T09:59:54;2.80;;;1.10;;
8413;SDS011;4244;48.684;9.028;2024-02-26T10:02:30;1.60;;;1.00;;
8413;SDS011;4244;48.684;9.028;2024-02-26T10:04:56;1.47;;;0.90;;
8413;SDS011;4244;48.684;9.028;2024-02-26T10:07:26;1.27;;;0.90;;
8413;SDS011;4244;48.684;9.028;2024-02-26T10:09:54;2.17;;;1.00;;
8413;SDS011;4244;48.684;9.028;2024-02-26T10:12:21;2.03;;;1.13;;
8413;SDS011;4244;48.684;9.028;2024-02-26T10:14:47;1.40;;;0.93;;
8413;SDS011;4244;48.684;9.028;2024-02-26T10:17:13;1.77;;;0.80;;
8413;SDS011;4244;48.684;9.028;2024-02-26T10:19:42;1.60;;;0.90;;
8413;SDS011;4244;48.684;9.028;2024-02-26T10:22:08;2.97;;;1.20;;
8413;SDS011;4244;48.684;9.028;2024-02-26T10:24:34;1.40;;;0.80;;
8413;SDS011;4244;48.684;9.028;2024-02-26T10:27:00;2.60;;;1.03;;
8413;SDS011;4244;48.684;9.028;2024-02-26T10:29:27;1.20;;;0.90;;
8413;SDS011;4244;48.684;9.028;2024-02-26T10:31:53;1.30;;;0.90;;
8413;SDS011;4244;48.684;9.028;2024-02-26T10:34:20;1.87;;;1.00;;
8413;SDS011;4244;48.684;9.028;2024-02-26T10:36:46;1.37;;;1.10;;
8413;SDS011;4244;48.684;9.028;2024-02-26T10:39:13;1.27;;;1.10;;
8413;SDS011;4244;48.684;9.028;2024-02-26T10:41:42;1.47;;;0.93;;
8413;SDS011;4244;48.684;9.028;2024-02-26T10:44:11;4.07;;;1.90;;
8413;SDS011;4244;48.684;9.028;2024-02-26T10:46:38;3.97;;;1.43;;
8413;SDS011;4244;48.684;9.028;2024-02-26T10:49:08;3.60;;;1.23;;
8413;SDS011;4244;48.684;9.028;2024-02-26T10:51:38;3.77;;;1.40;;
8413;SDS011;4244;48.684;9.028;2024-02-26T10:54:04;1.70;;;1.27;;
8413;SDS011;4244;48.684;9.028;2024-02-26T10:56:33;2.30;;;1.80;;
8413;SDS011;4244;48.684;9.028;2024-02-26T10:58:59;1.50;;;1.40;;
8413;SDS011;4244;48.684;9.028;2024-02-26T11:01:26;2.37;;;1.70;;
8413;SDS011;4244;48.684;9.028;2024-02-26T11:03:54;3.80;;;2.33;;
8413;SDS011;4244;48.684;9.028;2024-02-26T11:06:21;2.27;;;1.90;;
8413;SDS011;4244;48.684;9.028;2024-02-26T11:08:48;2.93;;;2.20;;
8413;SDS011;4244;48.684;9.028;2024-02-26T11:11:14;5.13;;;2.30;;
8413;SDS011;4244;48.684;9.028;2024-02-26T11:13:41;1.70;;;1.30;;
8413;SDS011;4244;48.684;9.028;2024-02-26T11:16:10;2.70;;;1.43;;
8413;SDS011;4244;48.684;9.028;2024-02-26T11:18:36;1.70;;;1.60;;
8413;SDS011;4244;48.684;9.028;2024-02-26T11:21:02;2.17;;;1.70;;
8413;SDS011;4244;48.684;9.028;2024-02-26T11:23:29;2.07;;;1.30;;
8413;SDS011;4244;48.684;9.028;2024-02-26T11:25:57;1.90;;;1.50;;
8413;SDS011;4244;48.684;9.028;2024-02-26T11:28:24;1.90;;;1.43;;
8413;SDS011;4244;48.684;9.028;2024-02-26T11:30:52;2.20;;;1.63;;
8413;SDS011;4244;48.684;9.028;2024-02-26T11:33:18;1.80;;;1.50;;
8413;SDS011;4244;48.684;9.028;2024-02-26T11:35:45;1.87;;;1.17;;
8413;SDS011;4244;48.684;9.028;2024-02-26T11:38:21;2.33;;;1.40;;
8413;SDS011;4244;48.684;9.028;2024-02-26T11:40:48;1.97;;;1.70;;
8413;SDS011;4244;48.684;9.028;2024-02-26T11:43:14;3.23;;;1.40;;
8413;SDS011;4244;48.684;9.028;2024-02-26T11:48:13;2.20;;;1.33;;
8413;SDS011;4244;48.684;9.028;2024-02-26T11:50:45;1.90;;;1.40;;
8413;SDS011;4244;48.684;9.028;2024-02-26T11:53:27;2.27;;;1.77;;
8413;SDS011;4244;48.684;9.028;2024-02-26T11:58:40;1.80;;;1.17;;
8413;SDS011;4244;48.684;9.028;2024-02-26T12:01:35;2.63;;;1.30;;
8413;SDS011;4244;48.684;9.028;2024-02-26T12:03:53;1.70;;;1.20;;
8413;SDS011;4244;48.684;9.028;2024-02-26T12:06:20;5.13;;;1.73;;
8413;SDS011;4244;48.684;9.028;2024-02-26T12:08:46;4.00;;;1.80;;
8413;SDS011;4244;48.684;9.028;2024-02-26T12:11:15;4.27;;;1.40;;
8413;SDS011;4244;48.684;9.028;2024-02-26T12:13:41;2.17;;;1.60;;
8413;SDS011;4244;48.684;9.028;2024-02-26T12:16:11;3.70;;;1.70;;
8413;SDS011;4244;48.684;9.028;2024-02-26T12:18:37;3.67;;;1.70;;
8413;SDS011;4244;48.684;9.028;2024-02-26T12:21:06;3.77;;;1.70;;
8413;SDS011;4244;48.684;9.028;2024-02-26T12:23:32;2.60;;;1.10;;
8413;SDS011;4244;48.684;9.028;2024-02-26T12:25:58;1.93;;;1.30;;
8413;SDS011;4244;48.684;9.028;2024-02-26T12:28:31;1.70;;;1.53;;
8413;SDS011;4244;48.684;9.028;2024-02-26T12:30:56;1.93;;;1.37;;
8413;SDS011;4244;48.684;9.028;2024-02-26T12:33:24;1.87;;;1.30;;
8413;SDS011;4244;48.684;9.028;2024-02-26T12:35:51;4.93;;;1.43;;
8413;SDS011;4244;48.684;9.028;2024-02-26T12:38:17;2.10;;;1.90;;
8413;SDS011;4244;48.684;9.028;2024-02-26T12:40:44;3.13;;;1.10;;
8413;SDS011;4244;48.684;9.028;2024-02-26T12:43:10;1.30;;;0.97;;
8413;SDS011;4244;48.684;9.028;2024-02-26T12:45:42;1.37;;;1.17;;
8413;SDS011;4244;48.684;9.028;2024-02-26T12:48:11;1.07;;;0.70;;
8413;SDS011;4244;48.684;9.028;2024-02-26T12:50:38;1.90;;;0.93;;
8413;SDS011;4244;48.684;9.028;2024-02-26T12:53:04;1.30;;;0.90;;
8413;SDS011;4244;48.684;9.028;2024-02-26T12:55:31;1.47;;;0.90;;
8413;SDS011;4244;48.684;9.028;2024-02-26T12:57:59;1.03;;;0.40;;
8413;SDS011;4244;48.684;9.028;2024-02-26T13:00:26;1.17;;;0.50;;
8413;SDS011;4244;48.684;9.028;2024-02-26T13:02:53;1.30;;;0.70;;
8413;SDS011;4244;48.684;9.028;2024-02-26T13:05:20;0.97;;;0.60;;
8413;SDS011;4244;48.684;9.028;2024-02-26T13:07:47;1.63;;;0.50;;
8413;SDS011;4244;48.684;9.028;2024-02-26T13:10:13;2.17;;;1.00;;
8413;SDS011;4244;48.684;9.028;2024-02-26T13:12:46;1.40;;;0.73;;
8413;SDS011;4244;48.684;9.028;2024-02-26T13:15:16;1.20;;;0.60;;
8413;SDS011;4244;48.684;9.028;2024-02-26T13:17:43;1.00;;;0.50;;
8413;SDS011;4244;48.684;9.028;2024-02-26T13:20:09;1.00;;;0.60;;
8413;SDS011;4244;48.684;9.028;2024-02-26T13:22:36;1.10;;;0.70;;
8413;SDS011;4244;48.684;9.028;2024-02-26T13:25:02;2.20;;;0.93;;
8413;SDS011;4244;48.684;9.028;2024-02-26T13:27:29;1.20;;;0.70;;
8413;SDS011;4244;48.684;9.028;2024-02-26T13:30:04;1.20;;;0.67;;
8413;SDS011;4244;48.684;9.028;2024-02-26T13:32:34;1.07;;;0.53;;
8413;SDS011;4244;48.684;9.028;2024-02-26T13:35:10;1.03;;;0.70;;
8413;SDS011;4244;48.684;9.028;2024-02-26T13:37:37;1.03;;;0.40;;
8413;SDS011;4244;48.684;9.028;2024-02-26T13:40:04;1.23;;;0.77;;
8413;SDS011;4244;48.684;9.028;2024-02-26T13:42:30;1.80;;;0.60;;
8413;SDS011;4244;48.684;9.028;2024-02-26T13:44:57;1.73;;;0.83;;
8413;SDS011;4244;48.684;9.028;2024-02-26T13:47:22;1.23;;;0.63;;
8413;SDS011;4244;48.684;9.028;2024-02-26T13:49:48;1.13;;;0.60;;
8413;SDS011;4244;48.684;9.028;2024-02-26T13:52:14;0.97;;;0.43;;
8413;SDS011;4244;48.684;9.028;2024-02-26T13:54:40;1.17;;;0.50;;
8413;SDS011;4244;48.684;9.028;2024-02-26T13:57:07;1.30;;;0.80;;
8413;SDS011;4244;48.684;9.028;2024-02-26T13:59:34;1.20;;;0.70;;
8413;SDS011;4244;48.684;9.028;2024-02-26T14:02:00;2.20;;;0.90;;
8413;SDS011;4244;48.684;9.028;2024-02-26T14:04:26;1.00;;;0.60;;
8413;SDS011;4244;48.684;9.028;2024-02-26T14:06:52;1.40;;;0.70;;
8413;SDS011;4244;48.684;9.028;2024-02-26T14:09:18;1.00;;;0.50;;
8413;SDS011;4244;48.684;9.028;2024-02-26T14:11:47;1.93;;;0.83;;
8413;SDS011;4244;48.684;9.028;2024-02-26T14:14:14;1.10;;;0.50;;
8413;SDS011;4244;48.684;9.028;2024-02-26T14:16:40;0.90;;;0.60;;
8413;SDS011;4244;48.684;9.028;2024-02-26T14:19:06;1.07;;;0.57;;
8413;SDS011;4244;48.684;9.028;2024-02-26T14:21:32;1.43;;;0.60;;
8413;SDS011;4244;48.684;9.028;2024-02-26T14:23:58;1.27;;;0.60;;
8413;SDS011;4244;48.684;9.028;2024-02-26T14:26:24;1.10;;;0.70;;
8413;SDS011;4244;48.684;9.028;2024-02-26T14:28:50;2.03;;;0.70;;
8413;SDS011;4244;48.684;9.028;2024-02-26T14:31:19;1.30;;;0.50;;
8413;SDS011;4244;48.684;9.028;2024-02-26T14:33:45;1.77;;;0.60;;
8413;SDS011;4244;48.684;9.028;2024-02-26T14:36:11;3.57;;;1.70;;
8413;SDS011;4244;48.684;9.028;2024-02-26T14:38:37;1.20;;;0.70;;
8413;SDS011;4244;48.684;9.028;2024-02-26T14:41:04;1.20;;;0.70;;
8413;SDS011;4244;48.684;9.028;2024-02-26T14:43:30;1.83;;;0.67;;
8413;SDS011;4244;48.684;9.028;2024-02-26T14:45:57;1.40;;;0.80;;
8413;SDS011;4244;48.684;9.028;2024-02-26T14:48:24;2.13;;;0.70;;
8413;SDS011;4244;48.684;9.028;2024-02-26T14:50:50;3.23;;;1.00;;
8413;SDS011;4244;48.684;9.028;2024-02-26T14:53:16;2.20;;;0.83;;
8413;SDS011;4244;48.684;9.028;2024-02-26T14:55:42;1.00;;;0.70;;
8413;SDS011;4244;48.684;9.028;2024-02-26T14:58:08;1.93;;;1.30;;
8413;SDS011;4244;48.684;9.028;2024-02-26T15:00:38;1.20;;;0.67;;
8413;SDS011;4244;48.684;9.028;2024-02-26T15:03:03;2.10;;;1.10;;
8413;SDS011;4244;48.684;9.028;2024-02-26T15:05:29;1.73;;;1.13;;
8413;SDS011;4244;48.684;9.028;2024-02-26T15:07:55;2.83;;;1.30;;
8413;SDS011;4244;48.684;9.028;2024-02-26T15:10:20;2.27;;;0.90;;
8413;SDS011;4244;48.684;9.028;2024-02-26T15:12:46;1.73;;;1.27;;
8413;SDS011;4244;48.684;9.028;2024-02-26T15:15:12;1.70;;;0.90;;
8413;SDS011;4244;48.684;9.028;2024-02-26T15:17:37;2.23;;;1.20;;